Terminal Aerodrome Forecast
Issued by NWS Wilmington, NC

Current Version | Previous Version | Graphics & Text | Print | Product List | Glossary Off
Versions: 1 2 3 4 5 6 7 8 9 10 11 12 13 14

000
FTUS42 KILM 292300
TAFMYR
TAF
KMYR 292320Z 3000/3024 13009KT P6SM SCT050 SCT090
     FM300100 VRB02KT P6SM FEW060
     FM301400 06008KT P6SM SCT040
     FM301800 13007KT P6SM FEW050
      AMD LTD TO CLD VIS AND WIND 3004/3011=

USA.gov is the U.S. government's official web portal to all federal, state and local government web resources and services.